createdAt,value
2023-05-06T00:01:20.492Z,66.28
2023-05-06T00:03:48.049Z,66.70
2023-05-06T00:06:15.277Z,67.79
2023-05-06T00:08:42.195Z,68.99
2023-05-06T00:11:09.075Z,71.42
2023-05-06T00:13:36.071Z,72.27
2023-05-06T00:16:02.917Z,70.43
2023-05-06T00:18:29.792Z,68.15
2023-05-06T00:20:56.848Z,66.71
2023-05-06T00:23:23.663Z,66.26
2023-05-06T00:25:50.665Z,65.67
2023-05-06T00:28:17.478Z,68.07
2023-05-06T00:30:44.367Z,66.27
2023-05-06T00:33:11.315Z,65.89
2023-05-06T00:35:38.195Z,65.31
2023-05-06T00:38:10.067Z,66.33
2023-05-06T00:40:37.260Z,67.60
2023-05-06T00:43:04.437Z,68.64
2023-05-06T00:45:31.836Z,68.98
2023-05-06T00:47:59.439Z,70.29
2023-05-06T00:50:31.411Z,70.20
2023-05-06T00:52:59.559Z,70.47
2023-05-06T00:55:27.511Z,69.22
2023-05-06T00:57:54.990Z,68.20
2023-05-06T01:00:21.955Z,68.61
2023-05-06T01:02:49.671Z,66.36
2023-05-06T01:05:18.412Z,66.62
2023-05-06T01:08:11.245Z,66.08
2023-05-06T01:10:53.777Z,69.10
2023-05-06T01:13:45.568Z,68.12
2023-05-06T01:16:14.662Z,68.31
2023-05-06T01:18:43.752Z,68.82
2023-05-06T01:21:12.916Z,74.09
2023-05-06T01:23:52.739Z,74.60
2023-05-06T01:26:19.473Z,75.23
2023-05-06T01:28:46.281Z,75.32
2023-05-06T01:31:17.523Z,71.61
2023-05-06T01:33:54.404Z,70.27
2023-05-06T01:37:02.767Z,69.00
2023-05-06T01:39:32.291Z,68.21
2023-05-06T01:42:02.403Z,67.10
2023-05-06T01:44:33.639Z,68.29
2023-05-06T01:47:01.642Z,67.32
2023-05-06T01:49:30.112Z,72.77
2023-05-06T01:51:58.082Z,70.76
2023-05-06T01:54:24.946Z,72.11
2023-05-06T01:56:51.748Z,71.17
2023-05-06T01:59:18.592Z,70.50
2023-05-06T02:01:45.667Z,71.85
2023-05-06T02:04:12.523Z,73.00
2023-05-06T02:06:39.365Z,74.70
2023-05-06T02:09:06.467Z,74.27
2023-05-06T02:11:33.301Z,75.29
2023-05-06T02:14:00.214Z,75.63
2023-05-06T02:16:29.874Z,76.93
2023-05-06T02:18:56.769Z,76.12
2023-05-06T02:21:24.044Z,74.50
2023-05-06T02:23:50.988Z,73.29
2023-05-06T02:26:17.853Z,73.00
2023-05-06T02:28:44.718Z,73.66
2023-05-06T02:31:17.829Z,73.92
2023-05-06T02:33:46.098Z,74.08
2023-05-06T02:36:12.935Z,72.80
2023-05-06T02:38:39.762Z,71.58
2023-05-06T02:41:06.655Z,71.34
2023-05-06T02:43:33.540Z,71.57
2023-05-06T02:46:00.497Z,72.32
2023-05-06T02:48:27.407Z,72.28
2023-05-06T02:50:54.259Z,71.07
2023-05-06T02:53:21.202Z,70.32
2023-05-06T02:55:48.081Z,71.68
2023-05-06T02:58:14.882Z,70.24
2023-05-06T03:00:41.705Z,71.01
2023-05-06T03:03:10.129Z,71.30
2023-05-06T03:05:36.986Z,68.77
2023-05-06T03:08:04.073Z,71.86
2023-05-06T03:10:31.129Z,72.58
2023-05-06T03:12:57.944Z,73.08
2023-05-06T03:15:24.851Z,73.78
2023-05-06T03:17:51.874Z,73.83
2023-05-06T03:20:19.003Z,75.13
2023-05-06T03:22:45.926Z,76.24
2023-05-06T03:25:12.879Z,76.24
2023-05-06T03:27:39.768Z,76.76
2023-05-06T03:30:07.172Z,78.34
2023-05-06T03:32:34.275Z,79.30
2023-05-06T03:35:01.097Z,79.18
2023-05-06T03:37:27.900Z,80.58
2023-05-06T03:39:54.727Z,80.54
2023-05-06T03:42:21.800Z,79.99
2023-05-06T03:44:48.610Z,78.97
2023-05-06T03:47:15.540Z,77.74
2023-05-06T03:49:42.345Z,78.43
2023-05-06T03:52:10.633Z,80.25
2023-05-06T03:54:37.478Z,81.75
2023-05-06T03:57:04.378Z,83.93
2023-05-06T03:59:31.299Z,86.42
2023-05-06T04:01:58.144Z,87.71
2023-05-06T04:04:27.466Z,90.08
2023-05-06T04:06:54.416Z,89.11
2023-05-06T04:09:21.199Z,91.27
2023-05-06T04:11:48.000Z,91.55
2023-05-06T04:14:14.828Z,91.05
2023-05-06T04:16:41.783Z,91.21
2023-05-06T04:19:09.410Z,88.63
2023-05-06T04:21:36.229Z,89.24
2023-05-06T04:24:03.098Z,88.09
2023-05-06T04:26:29.921Z,89.34
2023-05-06T04:28:56.727Z,87.14
2023-05-06T04:31:24.188Z,81.11
2023-05-06T04:33:51.046Z,77.76
2023-05-06T04:36:19.061Z,73.84
2023-05-06T04:38:47.441Z,71.38
2023-05-06T04:41:14.398Z,67.97
2023-05-06T04:43:41.790Z,66.39
2023-05-06T04:46:08.727Z,66.08
2023-05-06T04:48:35.643Z,67.40
2023-05-06T04:51:04.535Z,66.21
2023-05-06T04:53:31.974Z,66.12
2023-05-06T04:55:58.807Z,65.69
2023-05-06T04:58:25.731Z,66.34
2023-05-06T05:00:52.552Z,68.22
2023-05-06T05:03:19.533Z,67.85
2023-05-06T05:05:46.596Z,66.42
2023-05-06T05:08:13.611Z,63.60
2023-05-06T05:10:43.820Z,63.69
2023-05-06T05:13:10.716Z,60.14
2023-05-06T05:15:40.669Z,59.67
2023-05-06T05:18:07.564Z,61.87
2023-05-06T05:20:34.636Z,62.42
2023-05-06T05:23:01.648Z,63.21
2023-05-06T05:25:28.648Z,62.36
2023-05-06T05:27:55.503Z,61.78
2023-05-06T05:30:22.382Z,62.47
2023-05-06T05:32:49.298Z,62.58
2023-05-06T05:35:16.352Z,63.34
2023-05-06T05:37:43.197Z,64.14
2023-05-06T05:40:10.307Z,63.61
2023-05-06T05:42:37.160Z,64.32
2023-05-06T05:45:04.299Z,62.19
2023-05-06T05:47:31.154Z,63.99
2023-05-06T05:49:58.045Z,63.34
2023-05-06T05:52:24.924Z,62.92
2023-05-06T05:54:51.880Z,62.95
2023-05-06T05:57:18.766Z,61.44
2023-05-06T05:59:45.647Z,60.76
2023-05-06T06:02:12.636Z,61.46
2023-05-06T06:04:39.508Z,61.79
2023-05-06T06:07:06.663Z,62.55
2023-05-06T06:09:34.740Z,64.82
2023-05-06T06:12:02.190Z,67.41
2023-05-06T06:14:29.036Z,66.08
2023-05-06T06:16:55.904Z,66.81
2023-05-06T06:19:22.787Z,68.73
2023-05-06T06:21:49.725Z,67.31
2023-05-06T06:24:16.565Z,64.31
2023-05-06T06:26:43.442Z,63.33
2023-05-06T06:29:10.330Z,60.53
2023-05-06T06:31:39.763Z,59.50
2023-05-06T06:34:09.131Z,58.81
2023-05-06T06:36:36.007Z,59.23
2023-05-06T06:39:02.848Z,60.09
2023-05-06T06:41:29.677Z,57.27
2023-05-06T06:43:56.600Z,55.72
2023-05-06T06:46:23.726Z,55.86
2023-05-06T06:48:50.723Z,54.97
2023-05-06T06:51:17.574Z,56.16
2023-05-06T06:53:44.394Z,56.34
2023-05-06T06:56:14.700Z,54.29
2023-05-06T06:58:41.785Z,55.12
2023-05-06T07:01:09.005Z,57.17
2023-05-06T07:03:35.968Z,58.77
2023-05-06T07:06:02.926Z,61.24
2023-05-06T07:08:30.058Z,58.26
2023-05-06T07:10:56.951Z,58.13
2023-05-06T07:13:23.857Z,56.02
2023-05-06T07:15:50.750Z,56.16
2023-05-06T07:18:17.654Z,55.23
2023-05-06T07:20:44.620Z,52.21
2023-05-06T07:23:11.521Z,52.46
2023-05-06T07:25:38.407Z,52.30
2023-05-06T07:28:05.953Z,53.09
2023-05-06T07:30:32.781Z,55.59
2023-05-06T07:32:59.759Z,53.67
2023-05-06T07:35:26.691Z,53.63
2023-05-06T07:37:53.547Z,53.80
2023-05-06T07:40:20.361Z,53.57
2023-05-06T07:42:47.214Z,56.36
2023-05-06T07:45:15.364Z,55.28
2023-05-06T07:47:42.329Z,51.56
2023-05-06T07:50:10.749Z,52.21
2023-05-06T07:52:37.544Z,47.32
2023-05-06T07:55:05.376Z,52.18
2023-05-06T07:57:32.219Z,51.91
2023-05-06T07:59:59.030Z,51.26
2023-05-06T08:02:27.330Z,49.78
2023-05-06T08:04:54.322Z,50.09
2023-05-06T08:07:21.470Z,47.06
2023-05-06T08:09:48.382Z,45.92
2023-05-06T08:12:16.307Z,45.67
2023-05-06T08:14:43.201Z,47.13
2023-05-06T08:17:10.155Z,48.83
2023-05-06T08:19:37.015Z,43.62
2023-05-06T08:22:03.827Z,43.64
2023-05-06T08:24:30.673Z,41.72
2023-05-06T08:26:57.625Z,40.85
2023-05-06T08:29:24.463Z,40.15
2023-05-06T08:31:51.351Z,40.89
2023-05-06T08:34:20.387Z,42.92
2023-05-06T08:36:48.667Z,42.48
2023-05-06T08:39:15.721Z,42.16
2023-05-06T08:41:48.662Z,44.11
2023-05-06T08:44:18.808Z,44.88
2023-05-06T08:46:47.070Z,44.82
2023-05-06T08:49:14.097Z,42.06
2023-05-06T08:51:43.955Z,40.69
2023-05-06T08:54:13.878Z,40.74
2023-05-06T08:56:47.611Z,41.55
2023-05-06T08:59:14.570Z,43.57
2023-05-06T09:01:41.613Z,41.47
2023-05-06T09:04:09.400Z,43.00
2023-05-06T09:06:36.551Z,40.12
2023-05-06T09:09:03.761Z,37.61
2023-05-06T09:11:31.044Z,37.22
2023-05-06T09:14:17.975Z,37.94
2023-05-06T09:16:50.394Z,35.39
2023-05-06T09:19:19.212Z,35.51
2023-05-06T09:21:48.500Z,33.63
2023-05-06T09:24:16.187Z,34.24
2023-05-06T09:26:43.739Z,35.51
2023-05-06T09:29:10.871Z,36.04
2023-05-06T09:31:41.966Z,35.30
2023-05-06T09:34:08.692Z,33.66
2023-05-06T09:39:44.670Z,35.16
2023-05-06T09:42:11.604Z,35.91
2023-05-06T09:44:38.322Z,34.39
2023-05-06T09:47:05.455Z,32.87
2023-05-06T09:49:32.146Z,32.48
2023-05-06T09:51:59.244Z,32.74
2023-05-06T09:54:27.085Z,33.08
2023-05-06T09:56:55.525Z,31.98
2023-05-06T09:59:22.885Z,30.84
2023-05-06T10:01:49.742Z,31.26
2023-05-06T10:04:18.202Z,30.23
2023-05-06T10:06:48.097Z,31.18
2023-05-06T10:09:15.236Z,31.99
2023-05-06T10:11:42.399Z,30.61
2023-05-06T10:14:09.946Z,30.93
2023-05-06T10:16:37.632Z,31.37
2023-05-06T10:19:06.853Z,32.08
2023-05-06T10:21:36.149Z,31.72
2023-05-06T10:24:07.450Z,30.50
2023-05-06T10:26:36.497Z,29.46
2023-05-06T10:29:04.994Z,30.53
2023-05-06T10:31:32.979Z,29.40
2023-05-06T10:34:03.165Z,29.07
2023-05-06T10:36:32.289Z,28.15
2023-05-06T10:39:01.815Z,29.07
2023-05-06T10:41:29.344Z,29.14
2023-05-06T10:43:57.217Z,31.76
2023-05-06T10:46:24.860Z,33.06
2023-05-06T10:49:04.664Z,33.84
2023-05-06T10:51:31.956Z,34.58
2023-05-06T10:53:58.646Z,33.71
2023-05-06T10:56:25.868Z,35.95
2023-05-06T10:58:54.054Z,32.51
2023-05-06T11:01:26.763Z,34.76
2023-05-06T11:03:53.762Z,33.19
2023-05-06T11:06:35.802Z,34.44
2023-05-06T11:09:04.514Z,35.70
2023-05-06T11:11:47.240Z,36.95
2023-05-06T11:14:14.582Z,35.56
2023-05-06T11:16:48.768Z,33.99
2023-05-06T11:19:29.301Z,32.29
2023-05-06T11:21:57.685Z,31.96
2023-05-06T11:24:39.549Z,31.72
2023-05-06T11:27:07.203Z,31.30
2023-05-06T11:29:34.020Z,29.88
2023-05-06T11:32:00.855Z,30.40
2023-05-06T11:34:31.230Z,30.53
2023-05-06T11:36:58.751Z,29.78
2023-05-06T11:39:30.718Z,30.14
2023-05-06T11:42:02.744Z,29.91
2023-05-06T11:44:30.815Z,29.28
2023-05-06T11:46:58.348Z,31.04
2023-05-06T11:49:25.833Z,33.44
2023-05-06T11:51:52.917Z,30.79
2023-05-06T11:54:22.747Z,32.22
2023-05-06T11:56:52.657Z,28.70
2023-05-06T11:59:28.172Z,31.07
2023-05-06T12:01:56.557Z,27.56
2023-05-06T12:04:23.230Z,28.56
2023-05-06T12:06:50.129Z,27.35
2023-05-06T12:09:17.069Z,26.38
2023-05-06T12:11:44.959Z,26.82
2023-05-06T12:14:12.510Z,28.75
2023-05-06T12:16:39.372Z,31.81
2023-05-06T12:19:06.224Z,28.76
2023-05-06T12:21:33.266Z,27.38
2023-05-06T12:24:01.365Z,28.04
2023-05-06T12:26:28.311Z,27.84
2023-05-06T12:29:21.083Z,28.50
2023-05-06T12:31:48.374Z,28.46
2023-05-06T12:34:16.340Z,28.04
2023-05-06T12:36:44.607Z,30.95
2023-05-06T12:39:14.704Z,33.13
2023-05-06T12:41:45.024Z,31.20
2023-05-06T12:44:33.553Z,32.61
2023-05-06T12:47:01.394Z,32.24
2023-05-06T12:49:28.388Z,31.65
2023-05-06T12:52:10.666Z,31.38
2023-05-06T12:54:37.513Z,30.54
2023-05-06T12:57:04.706Z,31.45
2023-05-06T12:59:31.875Z,33.53
2023-05-06T13:01:59.207Z,30.66
2023-05-06T13:04:26.276Z,32.33
2023-05-06T13:06:53.080Z,31.96
2023-05-06T13:09:19.835Z,31.26
2023-05-06T13:11:46.599Z,29.20
2023-05-06T13:14:13.906Z,29.51
2023-05-06T13:16:42.282Z,28.98
2023-05-06T13:19:21.131Z,29.73
2023-05-06T13:21:51.918Z,28.60
2023-05-06T13:24:18.545Z,29.55
2023-05-06T13:26:45.289Z,28.20
2023-05-06T13:29:11.996Z,30.13
2023-05-06T13:31:38.939Z,29.26
2023-05-06T13:34:06.075Z,27.25
2023-05-06T13:36:32.792Z,26.45
2023-05-06T13:38:59.517Z,27.15
2023-05-06T13:41:26.168Z,29.17
2023-05-06T13:43:52.864Z,28.66
2023-05-06T13:46:19.657Z,28.76
2023-05-06T13:48:46.356Z,30.80
2023-05-06T13:51:13.060Z,29.37
2023-05-06T13:53:39.752Z,29.74
2023-05-06T13:56:06.555Z,29.32
2023-05-06T13:58:33.561Z,30.63
2023-05-06T14:01:00.234Z,30.68
2023-05-06T14:03:27.097Z,31.58
2023-05-06T14:05:53.824Z,33.52
2023-05-06T14:08:20.485Z,33.66
2023-05-06T14:10:47.240Z,31.12
2023-05-06T14:13:13.937Z,31.79
2023-05-06T14:15:40.661Z,31.73
2023-05-06T14:18:07.347Z,30.10
2023-05-06T14:20:34.134Z,29.51
2023-05-06T14:23:00.815Z,30.17
2023-05-06T14:25:28.165Z,31.05
2023-05-06T14:27:55.361Z,29.02
2023-05-06T14:30:22.166Z,33.12
2023-05-06T14:32:49.059Z,30.35
2023-05-06T14:35:15.925Z,31.59
2023-05-06T14:37:42.651Z,29.14
2023-05-06T14:40:10.253Z,29.45
2023-05-06T14:42:37.195Z,29.51
2023-05-06T14:45:04.198Z,29.04
2023-05-06T14:47:30.946Z,31.53
2023-05-06T14:49:57.640Z,29.42
2023-05-06T14:52:24.358Z,28.72
2023-05-06T14:54:51.024Z,28.64
2023-05-06T14:57:17.743Z,27.81
2023-05-06T14:59:44.393Z,28.44
2023-05-06T15:02:11.309Z,29.01
2023-05-06T15:04:38.024Z,30.41
2023-05-06T15:07:04.699Z,29.33
2023-05-06T15:09:31.527Z,29.62
2023-05-06T15:11:58.278Z,30.43
2023-05-06T15:14:24.949Z,30.53
2023-05-06T15:16:52.886Z,30.70
2023-05-06T15:19:19.621Z,32.71
2023-05-06T15:21:46.601Z,33.75
2023-05-06T15:24:13.291Z,34.09
2023-05-06T15:26:39.978Z,34.53
2023-05-06T15:29:07.468Z,35.58
2023-05-06T15:31:39.113Z,35.60
2023-05-06T15:34:06.617Z,35.70
2023-05-06T15:36:33.284Z,36.58
2023-05-06T15:39:01.018Z,36.90
2023-05-06T15:41:32.017Z,36.07
2023-05-06T15:43:59.369Z,36.73
2023-05-06T15:46:26.916Z,38.69
2023-05-06T15:49:09.025Z,37.65
2023-05-06T15:51:40.478Z,37.78
2023-05-06T15:54:07.133Z,37.67
2023-05-06T15:56:39.372Z,38.86
2023-05-06T15:59:08.498Z,38.97
2023-05-06T16:02:04.871Z,39.56
2023-05-06T16:04:22.119Z,39.99
2023-05-06T16:06:49.098Z,41.10
2023-05-06T16:09:15.848Z,40.93
2023-05-06T16:11:42.532Z,41.47
2023-05-06T16:14:09.187Z,41.00
2023-05-06T16:16:36.037Z,41.24
2023-05-06T16:19:02.837Z,41.37
2023-05-06T16:21:29.522Z,40.46
2023-05-06T16:23:56.174Z,39.83
2023-05-06T16:26:23.025Z,39.37
2023-05-06T16:28:49.680Z,39.38
2023-05-06T16:31:16.405Z,39.30
2023-05-06T16:33:43.153Z,39.50
2023-05-06T16:36:09.833Z,43.05
2023-05-06T16:38:36.671Z,44.46
2023-05-06T16:41:03.514Z,44.31
2023-05-06T16:43:30.192Z,44.68
2023-05-06T16:45:56.868Z,44.14
2023-05-06T16:48:23.608Z,45.20
2023-05-06T16:50:50.315Z,46.41
2023-05-06T16:53:17.693Z,47.67
2023-05-06T16:55:49.222Z,48.54
2023-05-06T16:58:16.036Z,50.32
2023-05-06T17:00:42.854Z,49.73
2023-05-06T17:03:09.973Z,50.74
2023-05-06T17:05:37.022Z,50.62
2023-05-06T17:08:04.127Z,51.09
2023-05-06T17:10:30.957Z,52.25
2023-05-06T17:12:57.766Z,53.19
2023-05-06T17:15:25.119Z,52.37
2023-05-06T17:17:52.040Z,52.62
2023-05-06T17:20:20.151Z,53.06
2023-05-06T17:22:47.017Z,52.55
2023-05-06T17:25:13.789Z,60.36
2023-05-06T17:27:40.540Z,60.69
2023-05-06T17:30:09.826Z,67.19
2023-05-06T17:32:36.784Z,63.19
2023-05-06T17:35:03.747Z,60.59
2023-05-06T17:37:31.104Z,63.89
2023-05-06T17:39:58.084Z,66.58
2023-05-06T17:42:24.797Z,64.67
2023-05-06T17:44:51.441Z,63.03
2023-05-06T17:47:18.174Z,63.90
2023-05-06T17:49:45.804Z,64.68
2023-05-06T17:52:12.463Z,65.32
2023-05-06T17:54:39.205Z,65.20
2023-05-06T17:57:05.951Z,63.57
2023-05-06T17:59:32.773Z,66.51
2023-05-06T18:02:00.486Z,68.19
2023-05-06T18:04:27.207Z,70.28
2023-05-06T18:06:53.839Z,73.99
2023-05-06T18:09:20.624Z,69.57
2023-05-06T18:11:47.403Z,70.77
2023-05-06T18:14:14.974Z,69.15
2023-05-06T18:16:42.161Z,66.49
2023-05-06T18:19:08.949Z,64.99
2023-05-06T18:21:36.162Z,62.57
2023-05-06T18:24:15.372Z,63.64
2023-05-06T18:26:44.689Z,61.02
2023-05-06T18:29:12.600Z,60.12
2023-05-06T18:31:39.776Z,60.60
2023-05-06T18:34:06.557Z,64.55
2023-05-06T18:36:35.196Z,62.72
2023-05-06T18:39:02.142Z,62.17
2023-05-06T18:41:28.869Z,61.73
2023-05-06T18:43:55.522Z,60.10
2023-05-06T18:46:22.683Z,59.09
2023-05-06T18:48:49.391Z,57.90
2023-05-06T18:51:17.522Z,60.07
2023-05-06T18:53:45.038Z,58.52
2023-05-06T18:56:12.087Z,58.94
2023-05-06T18:58:39.320Z,56.49
2023-05-06T19:01:09.872Z,57.20
2023-05-06T19:03:37.586Z,56.60
2023-05-06T19:06:05.580Z,56.23
2023-05-06T19:08:32.443Z,56.03
2023-05-06T19:10:59.397Z,55.84
2023-05-06T19:13:26.140Z,56.45
2023-05-06T19:15:52.810Z,56.86
2023-05-06T19:18:19.509Z,57.87
2023-05-06T19:20:46.514Z,59.88
2023-05-06T19:23:13.169Z,60.23
2023-05-06T19:25:40.058Z,59.42
2023-05-06T19:28:06.801Z,59.64
2023-05-06T19:30:34.579Z,58.66
2023-05-06T19:33:02.203Z,60.00
2023-05-06T19:35:29.009Z,59.95
2023-05-06T19:37:56.267Z,61.93
2023-05-06T19:40:22.979Z,61.91
2023-05-06T19:42:49.761Z,63.26
2023-05-06T19:45:17.461Z,61.99
2023-05-06T19:47:45.852Z,62.14
2023-05-06T19:50:13.237Z,62.91
2023-05-06T19:52:40.325Z,64.32
2023-05-06T19:55:07.448Z,64.61
2023-05-06T19:57:34.281Z,64.00
2023-05-06T20:00:05.456Z,66.83
2023-05-06T20:02:33.039Z,65.06
2023-05-06T20:05:00.730Z,63.16
2023-05-06T20:07:27.577Z,62.73
2023-05-06T20:09:56.100Z,62.43
2023-05-06T20:12:30.381Z,61.05
2023-05-06T20:14:57.069Z,59.12
2023-05-06T20:17:23.969Z,58.34
2023-05-06T20:19:50.850Z,60.72
2023-05-06T20:22:17.495Z,62.89
2023-05-06T20:24:44.889Z,64.63
2023-05-06T20:27:11.572Z,65.14
2023-05-06T20:29:38.285Z,63.06
2023-05-06T20:32:05.275Z,61.46
2023-05-06T20:34:32.208Z,60.17
2023-05-06T20:36:59.984Z,59.44
2023-05-06T20:39:26.651Z,59.79
2023-05-06T20:41:53.325Z,60.80
2023-05-06T20:44:19.990Z,61.54
2023-05-06T20:46:46.644Z,61.62
2023-05-06T20:49:13.352Z,61.43
2023-05-06T20:51:39.983Z,62.47
2023-05-06T20:54:06.630Z,62.53
2023-05-06T20:56:33.278Z,63.55
2023-05-06T20:58:59.985Z,66.51
2023-05-06T21:01:27.132Z,67.65
2023-05-06T21:03:54.005Z,67.04
2023-05-06T21:06:20.787Z,65.40
2023-05-06T21:08:47.613Z,68.97
2023-05-06T21:13:41.003Z,71.07
2023-05-06T21:16:08.135Z,71.50
2023-05-06T21:18:35.133Z,70.28
2023-05-06T21:21:02.072Z,68.80
2023-05-06T21:23:28.727Z,66.68
2023-05-06T21:25:55.418Z,65.25
2023-05-06T21:28:22.169Z,68.01
2023-05-06T21:30:48.837Z,68.53
2023-05-06T21:33:15.605Z,66.30
2023-05-06T21:35:42.296Z,66.49
2023-05-06T21:38:08.956Z,68.28
2023-05-06T21:40:35.743Z,68.47
2023-05-06T21:43:02.833Z,72.07
2023-05-06T21:45:29.532Z,71.89
2023-05-06T21:47:56.209Z,70.33
2023-05-06T21:50:22.899Z,71.74
2023-05-06T21:52:49.513Z,75.07
2023-05-06T21:55:16.219Z,73.53
2023-05-06T21:57:44.539Z,71.96
2023-05-06T22:00:12.513Z,71.11
2023-05-06T22:02:40.254Z,71.62
2023-05-06T22:05:08.159Z,69.86
2023-05-06T22:07:35.971Z,70.88
2023-05-06T22:10:03.056Z,73.51
2023-05-06T22:12:30.292Z,77.50
2023-05-06T22:14:57.128Z,77.73
2023-05-06T22:17:24.369Z,76.20
2023-05-06T22:19:51.957Z,75.21
2023-05-06T22:22:19.193Z,73.71
2023-05-06T22:24:46.097Z,80.01
2023-05-06T22:27:12.781Z,78.30
2023-05-06T22:29:39.728Z,77.55
2023-05-06T22:32:06.559Z,77.41
2023-05-06T22:34:33.258Z,78.36
2023-05-06T22:37:00.979Z,80.20
2023-05-06T22:39:28.041Z,77.77
2023-05-06T22:41:54.695Z,74.67
2023-05-06T22:44:21.540Z,72.82
2023-05-06T22:46:48.185Z,72.74
2023-05-06T22:49:16.054Z,77.07
2023-05-06T22:51:42.867Z,76.42
2023-05-06T22:54:09.549Z,76.50
2023-05-06T22:56:36.238Z,80.23
2023-05-06T22:59:03.057Z,79.15
2023-05-06T23:01:32.527Z,81.21
2023-05-06T23:03:59.687Z,79.24
2023-05-06T23:06:31.092Z,79.11
2023-05-06T23:08:58.016Z,77.26
2023-05-06T23:11:24.866Z,74.74
2023-05-06T23:13:51.638Z,74.18
2023-05-06T23:16:18.445Z,74.92
2023-05-06T23:18:45.911Z,74.12
2023-05-06T23:23:47.859Z,76.91
2023-05-06T23:26:14.600Z,73.94
2023-05-06T23:28:41.330Z,74.94
2023-05-06T23:31:08.124Z,74.92
2023-05-06T23:33:34.814Z,75.25
2023-05-06T23:36:02.676Z,77.75
2023-05-06T23:38:30.422Z,77.36
2023-05-06T23:40:57.169Z,75.94
2023-05-06T23:43:23.976Z,76.60
2023-05-06T23:45:50.801Z,87.26
2023-05-06T23:48:17.694Z,81.63
2023-05-06T23:50:44.505Z,80.17
2023-05-06T23:53:11.506Z,83.92
2023-05-06T23:55:38.622Z,81.76
2023-05-06T23:58:05.379Z,78.59
